createdAt,value
2022-08-07T00:00:09.460Z,0
2022-08-07T00:05:09.667Z,0
2022-08-07T00:10:25.767Z,1.098
2022-08-07T00:15:09.490Z,1.633
2022-08-07T00:20:09.476Z,1.6
2022-08-07T00:25:10.993Z,1.5210000000000001
2022-08-07T00:30:21.827Z,1.52
2022-08-07T00:35:09.468Z,1.52
2022-08-07T00:40:10.813Z,1.5330000000000001
2022-08-07T00:45:09.606Z,1.565
2022-08-07T00:50:17.441Z,1.566
2022-08-07T00:55:10.475Z,1.5290000000000001
2022-08-07T01:00:09.501Z,1.5330000000000001
2022-08-07T01:05:18.941Z,1.42
2022-08-07T01:10:10.373Z,1.356
2022-08-07T01:15:11.736Z,0.892
2022-08-07T01:20:09.518Z,0.429
2022-08-07T01:25:40.711Z,0.078
2022-08-07T01:30:09.601Z,0
2022-08-07T01:35:09.540Z,0
2022-08-07T01:40:14.893Z,0
2022-08-07T01:45:15.950Z,0.427
2022-08-07T01:50:09.559Z,0.425
2022-08-07T01:55:09.556Z,0.029
2022-08-07T02:00:00.631Z,0.003
2022-08-07T02:05:00.686Z,0
2022-08-07T02:10:00.657Z,0
2022-08-07T02:15:00.985Z,0
2022-08-07T02:20:06.057Z,0
2022-08-07T02:25:00.797Z,0
2022-08-07T02:30:03.517Z,0.007
2022-08-07T02:35:00.793Z,0.001
2022-08-07T02:40:02.622Z,0.003
2022-08-07T02:45:00.787Z,0
2022-08-07T02:50:03.833Z,0
2022-08-07T02:55:00.978Z,0
2022-08-07T03:00:01.472Z,0
2022-08-07T03:05:00.822Z,0
2022-08-07T03:10:00.731Z,0
2022-08-07T03:15:02.302Z,0
2022-08-07T03:20:05.434Z,0.007
2022-08-07T03:25:00.802Z,0.002
2022-08-07T03:30:00.834Z,0
2022-08-07T03:35:17.256Z,0
2022-08-07T03:40:13.380Z,15.349
2022-08-07T03:45:01.342Z,40.415
2022-08-07T03:50:01.135Z,42.38
2022-08-07T03:55:07.236Z,75.46600000000001
2022-08-07T04:00:01.422Z,117.062
2022-08-07T04:05:00.929Z,137.113
2022-08-07T04:10:02.024Z,196.821
2022-08-07T04:15:00.847Z,183.946
2022-08-07T04:20:03.555Z,189.305
2022-08-07T04:25:01.755Z,217.209
2022-08-07T04:30:02.574Z,348.894
2022-08-07T04:35:00.817Z,458.985
2022-08-07T04:40:00.791Z,428.88
2022-08-07T04:45:03.134Z,397.008
2022-08-07T04:50:06.200Z,539.988
2022-08-07T04:55:00.792Z,597.588
2022-08-07T05:00:08.295Z,650.253
2022-08-07T05:05:00.848Z,679.392
2022-08-07T05:10:00.979Z,681.029
2022-08-07T05:15:03.591Z,546.811
2022-08-07T05:20:00.820Z,377.75600000000003
2022-08-07T05:25:00.810Z,312.435
2022-08-07T05:30:01.002Z,344.646
2022-08-07T05:35:00.832Z,677.306
2022-08-07T05:40:06.262Z,1042.722
2022-08-07T05:45:04.554Z,1112.526
2022-08-07T05:50:03.252Z,1253.018
2022-08-07T05:55:02.986Z,1491.9170000000001
2022-08-07T06:00:01.158Z,1607.587
2022-08-07T06:05:00.857Z,1751.047
2022-08-07T06:10:04.911Z,1635.31
2022-08-07T06:15:05.451Z,1551.266
2022-08-07T06:20:06.198Z,1597.82
2022-08-07T06:25:01.039Z,1878.375
2022-08-07T06:30:00.892Z,2260.315
2022-08-07T06:35:01.046Z,1537.954
2022-08-07T06:40:13.813Z,1206.852
2022-08-07T06:45:00.905Z,1319.474
2022-08-07T06:50:01.102Z,1095.604
2022-08-07T06:55:31.123Z,682.463
2022-08-07T07:00:10.888Z,746.513
2022-08-07T07:05:00.914Z,766.992
2022-08-07T07:10:00.912Z,765.592
2022-08-07T07:15:01.174Z,1302.401
2022-08-07T07:20:03.922Z,1590.116
2022-08-07T07:25:02.702Z,1650.643
2022-08-07T07:30:09.557Z,1658.545
2022-08-07T07:35:01.067Z,1673.251
2022-08-07T07:40:01.008Z,1699.8600000000001
2022-08-07T07:45:00.953Z,1902.268
2022-08-07T07:50:32.133Z,2261.041
2022-08-07T07:55:01.327Z,2503.285
2022-08-07T08:00:01.182Z,3386.404
2022-08-07T08:05:00.956Z,4949.557
2022-08-07T08:10:04.749Z,3374.079
2022-08-07T08:15:01.166Z,2431.2490000000003
2022-08-07T08:20:16.605Z,1845.515
2022-08-07T08:25:04.610Z,1793.459
2022-08-07T08:30:02.958Z,1951.1090000000002
2022-08-07T08:35:01.050Z,2100.837
2022-08-07T08:40:01.087Z,2693.764
2022-08-07T08:45:01.023Z,2707.212
2022-08-07T08:50:05.264Z,2185.157
2022-08-07T08:55:01.319Z,1946.115
2022-08-07T09:00:01.133Z,2330.555
2022-08-07T09:05:01.028Z,2622.582
2022-08-07T09:10:02.496Z,3623.996
2022-08-07T09:15:01.198Z,2863.274
2022-08-07T09:20:09.371Z,2650.381
2022-08-07T09:25:06.183Z,2046.0420000000001
2022-08-07T09:30:07.779Z,1938.938
2022-08-07T09:35:04.491Z,1668.178
2022-08-07T09:40:01.225Z,761.3870000000001
2022-08-07T09:47:19.932Z,1029.558
2022-08-07T09:50:18.128Z,3217.484
2022-08-07T09:55:01.037Z,3894.424
2022-08-07T10:00:01.878Z,4510.287
2022-08-07T10:05:01.192Z,5217.035
2022-08-07T10:10:02.527Z,3527.697
2022-08-07T10:15:01.075Z,4249.258
2022-08-07T10:20:04.096Z,3466.524
2022-08-07T10:25:01.136Z,3000.559
2022-08-07T10:30:01.238Z,2893.878
2022-08-07T10:35:01.116Z,3934.8630000000003
2022-08-07T10:40:03.136Z,5418.224
2022-08-07T10:45:01.093Z,2569.425
2022-08-07T10:50:06.784Z,2986.567
2022-08-07T10:55:01.734Z,2873.647
2022-08-07T11:00:01.235Z,3308.357
2022-08-07T11:05:04.253Z,3303.824
2022-08-07T11:10:06.841Z,3071.368
2022-08-07T11:15:01.243Z,2443.81
2022-08-07T11:20:03.306Z,2379.879
2022-08-07T11:25:02.694Z,3165.655
2022-08-07T11:30:10.408Z,3202.472
2022-08-07T11:35:01.140Z,2687.283
2022-08-07T11:40:02.103Z,1877.367
2022-08-07T11:45:01.353Z,1589.53
2022-08-07T11:50:25.615Z,1417.425
2022-08-07T11:55:01.369Z,1552.837
2022-08-07T12:00:08.642Z,1858.047
2022-08-07T12:05:01.316Z,2164.714
2022-08-07T12:10:02.095Z,2389.619
2022-08-07T12:15:01.752Z,2611.328
2022-08-07T12:20:14.144Z,2898.129
2022-08-07T12:25:02.184Z,3071.1
2022-08-07T12:30:01.184Z,2955.859
2022-08-07T12:35:01.207Z,3538.289
2022-08-07T12:40:01.247Z,2888.916
2022-08-07T12:45:04.394Z,2767.371
2022-08-07T12:50:34.601Z,2297.663
2022-08-07T12:55:03.859Z,1425.421
2022-08-07T13:00:01.287Z,1219.137
2022-08-07T13:05:02.398Z,1266.717
2022-08-07T13:10:11.065Z,1566.386
2022-08-07T13:15:01.323Z,1636.737
2022-08-07T13:20:01.227Z,1554.682
2022-08-07T13:25:02.436Z,1002.216
2022-08-07T13:30:03.503Z,1006.1460000000001
2022-08-07T13:35:01.235Z,1141.89
2022-08-07T13:40:34.403Z,1224.414
2022-08-07T13:45:21.139Z,1717.124
2022-08-07T13:50:31.825Z,1738.4560000000001
2022-08-07T13:55:01.259Z,1390.907
2022-08-07T14:00:01.409Z,1045.506
2022-08-07T14:05:01.298Z,867.8820000000001
2022-08-07T14:10:17.932Z,660.821
2022-08-07T14:15:01.271Z,640.593
2022-08-07T14:20:39.489Z,830.496
2022-08-07T14:25:01.275Z,1244.849
2022-08-07T14:30:05.944Z,1167.922
2022-08-07T14:35:01.468Z,910.457
2022-08-07T14:40:15.278Z,732.639
2022-08-07T14:45:20.988Z,509.874
2022-08-07T14:50:01.583Z,377.651
2022-08-07T14:55:01.471Z,373.577
2022-08-07T15:00:02.985Z,362.999
2022-08-07T15:05:01.573Z,395.678
2022-08-07T15:10:04.987Z,518.1560000000001
2022-08-07T15:15:07.509Z,813.315
2022-08-07T15:20:23.674Z,958.517
2022-08-07T15:25:03.600Z,1115.1100000000001
2022-08-07T15:30:04.103Z,1131.58
2022-08-07T15:35:01.429Z,1045.685
2022-08-07T15:40:01.326Z,987.8430000000001
2022-08-07T15:45:01.380Z,952.0840000000001
2022-08-07T15:50:06.795Z,1112.116
2022-08-07T15:55:02.217Z,1457.713
2022-08-07T16:00:04.231Z,1439.826
2022-08-07T16:05:01.427Z,1312.084
2022-08-07T16:10:01.412Z,1184.133
2022-08-07T16:15:01.467Z,1194.505
2022-08-07T16:20:01.643Z,1011.056
2022-08-07T16:25:01.461Z,572.285
2022-08-07T16:30:09.422Z,299.23
2022-08-07T16:35:01.449Z,189.05100000000002
2022-08-07T16:40:01.538Z,218.999
2022-08-07T16:45:14.507Z,293.192
2022-08-07T16:50:19.569Z,345.464
2022-08-07T16:55:03.108Z,400.298
2022-08-07T17:00:01.443Z,456.945
2022-08-07T17:05:01.538Z,560.927
2022-08-07T17:10:05.637Z,614.916
2022-08-07T17:15:01.414Z,631.941
2022-08-07T17:20:14.181Z,584.793
2022-08-07T17:25:01.426Z,536.592
2022-08-07T17:30:13.515Z,478.34700000000004
2022-08-07T17:40:03.562Z,373.484
2022-08-07T17:45:01.447Z,332.67
2022-08-07T17:50:01.555Z,287.982
2022-08-07T17:55:01.675Z,243.002
2022-08-07T18:00:01.587Z,203.661
2022-08-07T18:05:01.472Z,169.409
2022-08-07T18:10:05.473Z,138.697
2022-08-07T18:15:01.613Z,106.10300000000001
2022-08-07T18:21:05.418Z,77.083
2022-08-07T18:25:01.608Z,52.077
2022-08-07T18:30:04.872Z,30.943
2022-08-07T18:35:02.000Z,36.655
2022-08-07T18:40:05.860Z,19.824
2022-08-07T18:45:40.708Z,0.129
2022-08-07T18:50:32.974Z,0.129
2022-08-07T18:55:08.434Z,0.114
2022-08-07T19:00:04.328Z,0
2022-08-07T19:05:09.850Z,0.081
2022-08-07T19:10:01.517Z,0.131
2022-08-07T19:15:01.619Z,0.043000000000000003
2022-08-07T19:20:01.692Z,0.183
2022-08-07T19:25:05.867Z,0.153
2022-08-07T19:30:55.102Z,0.129
2022-08-07T19:35:01.614Z,1.029
2022-08-07T19:40:02.396Z,0.162
2022-08-07T19:45:08.016Z,0.09
2022-08-07T19:50:41.693Z,0.07200000000000001
2022-08-07T19:55:02.806Z,0.083
2022-08-07T20:00:01.874Z,0.069
2022-08-07T20:05:01.698Z,0.076
2022-08-07T20:10:34.658Z,0.091
2022-08-07T20:15:01.601Z,0.081
2022-08-07T20:20:06.597Z,0.082
2022-08-07T20:25:01.770Z,0.07100000000000001
2022-08-07T20:30:01.624Z,0.083
2022-08-07T20:35:01.604Z,0.064
2022-08-07T20:40:04.946Z,0.116
2022-08-07T20:45:01.757Z,0.14300000000000002
2022-08-07T20:50:02.405Z,0.115
2022-08-07T20:55:01.664Z,0.112
2022-08-07T21:00:05.867Z,0.105
2022-08-07T21:05:01.628Z,0.033
2022-08-07T21:10:01.829Z,0
2022-08-07T21:15:02.409Z,0.10200000000000001
2022-08-07T21:20:05.418Z,0.359
2022-08-07T21:25:04.613Z,1.33
2022-08-07T21:30:01.855Z,1.33
2022-08-07T21:35:01.638Z,1.381
2022-08-07T21:40:01.774Z,1.377
2022-08-07T21:45:01.670Z,1.366
2022-08-07T21:50:07.136Z,1.355
2022-08-07T21:55:01.666Z,1.438
2022-08-07T22:00:03.443Z,1.546
2022-08-07T22:05:01.684Z,1.2770000000000001
2022-08-07T22:10:01.786Z,1.2610000000000001
2022-08-07T22:15:01.659Z,1.272
2022-08-07T22:20:02.539Z,1.327
2022-08-07T22:25:01.699Z,1.3980000000000001
2022-08-07T22:30:01.905Z,1.5230000000000001
2022-08-07T22:35:02.062Z,1.295
2022-08-07T22:40:01.804Z,1.298
2022-08-07T22:45:02.145Z,1.241
2022-08-07T22:50:04.181Z,1.34
2022-08-07T22:55:15.063Z,1.397
2022-08-07T23:00:01.686Z,1.264
2022-08-07T23:06:05.250Z,1.286
2022-08-07T23:10:05.426Z,1.314
2022-08-07T23:15:01.872Z,1.391
2022-08-07T23:20:06.994Z,1.428
2022-08-07T23:25:01.805Z,1.268
2022-08-07T23:30:36.602Z,1.227
2022-08-07T23:35:01.902Z,1.23
2022-08-07T23:40:01.877Z,1.226
2022-08-07T23:45:01.781Z,1.272
2022-08-07T23:50:01.890Z,1.266
2022-08-07T23:55:01.965Z,1.264
